createdAt,value
2018-03-27T06:19:13.307Z,99.99
2018-03-27T06:20:13.572Z,99.99
2018-03-27T06:21:13.617Z,99.99
2018-03-27T06:22:13.350Z,99.99
2018-03-27T06:23:13.784Z,99.99
2018-03-27T06:24:14.459Z,99.99
2018-03-27T06:25:14.499Z,99.99
2018-03-27T06:26:14.661Z,99.99
2018-03-27T06:27:15.053Z,99.99
2018-03-27T06:28:14.783Z,99.99
2018-03-27T06:29:15.174Z,99.99
2018-03-27T06:30:14.919Z,99.99
2018-03-27T06:31:14.943Z,99.99
2018-03-27T06:32:15.088Z,99.99
2018-03-27T06:33:15.216Z,99.99
2018-03-27T06:34:15.690Z,99.99
2018-03-27T06:35:16.104Z,99.99
2018-03-27T06:36:15.923Z,99.99
2018-03-27T06:37:15.972Z,99.99
2018-03-27T06:38:16.021Z,99.78
2018-03-27T06:39:16.284Z,97.36
2018-03-27T06:40:16.154Z,94.42
2018-03-27T06:41:16.435Z,91.08
2018-03-27T06:42:16.689Z,85.16
2018-03-27T06:43:16.392Z,82.72
2018-03-27T06:44:16.650Z,80.57
2018-03-27T06:45:16.679Z,78.26
2018-03-27T06:46:16.576Z,76
2018-03-27T06:47:16.601Z,74.32
2018-03-27T06:48:16.614Z,71.3
2018-03-27T06:49:16.909Z,70.09
2018-03-27T06:50:16.672Z,68.59
2018-03-27T06:51:16.695Z,67.63
2018-03-27T06:52:17.057Z,66.42
2018-03-27T06:53:17.106Z,64.82
2018-03-27T06:54:17.261Z,64.09
2018-03-27T06:55:17.418Z,63.06
2018-03-27T06:56:17.576Z,61.43
2018-03-27T06:57:18.002Z,61.65
2018-03-27T06:58:18.369Z,60.69
2018-03-27T06:59:18.497Z,60.6
2018-03-27T07:00:18.834Z,59.19
2018-03-27T07:01:18.717Z,58.99
2018-03-27T07:02:18.923Z,58.03
2018-03-27T07:03:18.724Z,57.2
2018-03-27T07:04:18.545Z,56.81
2018-03-27T07:05:18.372Z,56.55
2018-03-27T07:06:18.636Z,55.88
2018-03-27T07:07:18.682Z,55.13
2018-03-27T07:08:18.708Z,54.75
2018-03-27T07:09:18.409Z,54.08
2018-03-27T07:10:18.710Z,54.78
2018-03-27T07:11:18.879Z,54
2018-03-27T07:12:18.890Z,53.62
2018-03-27T07:13:18.610Z,53.45
2018-03-27T07:14:18.635Z,52.69
2018-03-27T07:15:18.746Z,50.69
2018-03-27T07:16:19.171Z,49.82
2018-03-27T07:17:19.421Z,49.63
2018-03-27T07:18:20.063Z,50.4
2018-03-27T07:19:19.411Z,50.21
2018-03-27T07:20:19.450Z,50.01
2018-03-27T07:21:19.874Z,49.65
2018-03-27T07:22:19.780Z,49.65
2018-03-27T07:23:19.585Z,50.06
2018-03-27T07:24:19.614Z,49.48
2018-03-27T07:25:19.491Z,49.48
2018-03-27T07:26:20.156Z,50.62
2018-03-27T07:27:20.175Z,49.55
2018-03-27T07:28:20.107Z,48.88
2018-03-27T07:29:20.440Z,48.69
2018-03-27T07:30:20.718Z,48.97
2018-03-27T07:31:20.940Z,47.07
2018-03-27T07:32:21.535Z,47.07
2018-03-27T07:33:21.468Z,47.45
2018-03-27T07:34:22.581Z,47.09
2018-03-27T07:35:23.055Z,47.29
2018-03-27T07:36:22.766Z,47.22
2018-03-27T07:37:22.499Z,46.66
2018-03-27T07:38:22.676Z,46.37
2018-03-27T07:39:23.215Z,47.22
2018-03-27T07:40:23.021Z,47.58
2018-03-27T07:41:22.936Z,47.96
2018-03-27T07:42:23.272Z,47.77
2018-03-27T07:43:23.266Z,46.56
2018-03-27T07:44:22.827Z,46.17
2018-03-27T07:45:23.739Z,46.25
2018-03-27T07:46:23.845Z,46.95
2018-03-27T07:47:23.902Z,48.03
2018-03-27T07:48:24.124Z,50.08
2018-03-27T07:49:24.203Z,52.62
2018-03-27T07:50:24.483Z,53.91
2018-03-27T07:51:24.416Z,54.91
2018-03-27T07:52:24.385Z,56.81
2018-03-27T07:53:24.520Z,58.69
2018-03-27T07:54:24.532Z,59.33
2018-03-27T07:55:24.223Z,60.83
2018-03-27T07:56:24.491Z,61.88
2018-03-27T07:57:24.796Z,62.62
2018-03-27T07:58:24.548Z,61.79
2018-03-27T07:59:24.854Z,60.03
2018-03-27T08:00:25.030Z,57.12
2018-03-27T08:01:25.235Z,55.38
2018-03-27T08:02:25.677Z,54.52
2018-03-27T08:03:25.995Z,54.58
2018-03-27T08:04:26.053Z,54.46
2018-03-27T08:05:26.310Z,55.3
2018-03-27T08:06:26.387Z,57.26
2018-03-27T08:07:26.151Z,58.18
2018-03-27T08:08:26.012Z,59.72
2018-03-27T08:09:26.244Z,60.35
2018-03-27T08:10:26.244Z,60.64
2018-03-27T08:11:26.314Z,59.78
2018-03-27T08:12:26.271Z,57.54
2018-03-27T08:13:26.316Z,54.85
2018-03-27T08:14:26.084Z,52.98
2018-03-27T08:15:26.616Z,50.76
2018-03-27T08:16:26.561Z,49.74
2018-03-27T08:17:26.428Z,48.64
2018-03-27T08:18:26.706Z,47.51
2018-03-27T08:19:26.706Z,46.73
2018-03-27T08:20:26.433Z,46.91
2018-03-27T08:21:26.905Z,48.13
2018-03-27T08:22:26.956Z,49.27
2018-03-27T08:23:26.990Z,50.37
2018-03-27T08:24:27.106Z,50.34
2018-03-27T08:25:26.826Z,49.82
2018-03-27T08:26:27.242Z,51.23
2018-03-27T08:27:27.636Z,52.74
2018-03-27T08:28:27.595Z,53.28
2018-03-27T08:29:28.512Z,53.48
2018-03-27T08:30:28.017Z,53.64
2018-03-27T08:31:28.362Z,54.41
2018-03-27T08:32:28.537Z,54.41
2018-03-27T08:33:28.566Z,54.89
2018-03-27T08:34:28.398Z,55.08
2018-03-27T08:35:28.629Z,55.05
2018-03-27T08:36:29.709Z,55.73
2018-03-27T08:37:29.216Z,56.59
2018-03-27T08:38:29.648Z,56.94
2018-03-27T08:39:29.944Z,56.46
2018-03-27T08:40:29.977Z,57.26
2018-03-27T08:41:30.067Z,59.05
2018-03-27T08:42:29.804Z,60.93
2018-03-27T08:43:29.946Z,61.47
2018-03-27T08:44:30.499Z,61.47
2018-03-27T08:45:30.291Z,62.3
2018-03-27T08:46:30.115Z,63.35
2018-03-27T08:47:30.189Z,63.64
2018-03-27T08:48:30.468Z,64.5
2018-03-27T08:49:30.481Z,62.78
2018-03-27T08:50:30.693Z,62.43
2018-03-27T08:51:30.997Z,62.18
2018-03-27T08:52:30.561Z,61.63
2018-03-27T08:53:30.671Z,59.97
2018-03-27T08:54:30.593Z,56.32
2018-03-27T08:55:30.402Z,51.9
2018-03-27T08:56:30.955Z,49.26
2018-03-27T08:57:30.731Z,46.84
2018-03-27T08:58:30.978Z,46.04
2018-03-27T08:59:31.397Z,43.79
2018-03-27T09:00:31.328Z,41.93
2018-03-27T09:01:31.593Z,40.71
2018-03-27T09:02:31.812Z,39.57
2018-03-27T09:03:31.839Z,39.88
2018-03-27T09:04:31.902Z,39.69
2018-03-27T09:05:31.629Z,40.25
2018-03-27T09:06:31.941Z,39.92
2018-03-27T09:07:31.980Z,41.52
2018-03-27T09:08:32.169Z,42.66
2018-03-27T09:09:32.210Z,41.91
2018-03-27T09:10:32.339Z,41.15
2018-03-27T09:11:32.795Z,40.86
2018-03-27T09:12:33.623Z,40.5
2018-03-27T09:13:34.033Z,39.88
2018-03-27T09:14:34.080Z,38.68
2018-03-27T09:15:34.280Z,36.97
2018-03-27T09:16:34.556Z,36.15
2018-03-27T09:17:34.594Z,34.94
2018-03-27T09:18:34.738Z,34
2018-03-27T09:19:34.913Z,33.61
2018-03-27T09:20:35.336Z,33.44
2018-03-27T09:21:35.091Z,34.8
2018-03-27T09:22:35.415Z,37.79
2018-03-27T09:23:35.449Z,40.3
2018-03-27T09:24:35.953Z,42.84
2018-03-27T09:25:35.882Z,44.6
2018-03-27T09:26:36.149Z,45.15
2018-03-27T09:27:36.190Z,45.9
2018-03-27T09:28:35.995Z,47.71
2018-03-27T09:29:36.597Z,48.57
2018-03-27T09:30:36.922Z,45.81
2018-03-27T09:31:36.933Z,44.77
2018-03-27T09:32:37.095Z,44.87
2018-03-27T09:33:36.706Z,45.71
2018-03-27T09:34:36.748Z,46.84
2018-03-27T09:35:37.084Z,47.77
2018-03-27T09:36:36.822Z,49.45
2018-03-27T09:37:37.562Z,50.32
2018-03-27T09:38:38.012Z,48.95
2018-03-27T09:39:37.763Z,47.53
2018-03-27T09:40:37.835Z,47.17
2018-03-27T09:41:38.104Z,45.22
2018-03-27T09:42:38.505Z,42.71
2018-03-27T09:43:38.569Z,40.47
2018-03-27T09:44:38.983Z,38.45
2018-03-27T09:45:39.428Z,37.15
2018-03-27T09:46:39.179Z,35.74
2018-03-27T09:47:39.674Z,34.43
2018-03-27T09:48:39.477Z,32.82
2018-03-27T09:49:39.818Z,32.35
2018-03-27T09:50:39.825Z,30.83
2018-03-27T09:51:40.111Z,30.26
2018-03-27T09:52:40.102Z,31.02
2018-03-27T09:53:40.630Z,31.12
2018-03-27T09:54:40.700Z,30.06
2018-03-27T09:55:40.634Z,29.96
2018-03-27T09:56:40.971Z,29.66
2018-03-27T09:57:41.104Z,30.78
2018-03-27T09:58:41.516Z,32
2018-03-27T09:59:41.617Z,32.75
2018-03-27T10:00:42.037Z,32.84
2018-03-27T10:01:42.515Z,32.47
2018-03-27T10:02:42.500Z,32.92
2018-03-27T10:03:42.813Z,33.02
2018-03-27T10:04:43.256Z,33.67
2018-03-27T10:05:43.028Z,34.04
2018-03-27T10:06:43.844Z,35.07
2018-03-27T10:07:43.862Z,34.77
2018-03-27T10:08:44.055Z,35.42
2018-03-27T10:09:44.498Z,36.08
2018-03-27T10:10:44.758Z,36.94
2018-03-27T10:11:44.982Z,37.6
2018-03-27T10:12:45.113Z,37.52
2018-03-27T10:13:45.216Z,36.72
2018-03-27T10:14:45.193Z,36.71
2018-03-27T10:15:45.515Z,37.77
2018-03-27T10:16:45.819Z,36.94
2018-03-27T10:17:45.656Z,34.47
2018-03-27T10:18:46.738Z,34.14
2018-03-27T10:19:45.706Z,31.7
2018-03-27T10:20:46.112Z,31.43
2018-03-27T10:21:45.727Z,30.6
2018-03-27T10:22:49.258Z,30.62
2018-03-27T10:23:45.819Z,30.21
2018-03-27T10:24:46.328Z,30.07
2018-03-27T10:25:46.370Z,32.35
2018-03-27T10:26:46.406Z,33.65
2018-03-27T10:27:46.179Z,34.57
2018-03-27T10:28:46.764Z,33.91
2018-03-27T10:29:46.766Z,32.79
2018-03-27T10:30:47.338Z,31.26
2018-03-27T10:31:47.432Z,32.92
2018-03-27T10:32:47.447Z,34.95
2018-03-27T10:33:47.261Z,37.48
2018-03-27T10:34:47.522Z,37.62
2018-03-27T10:35:47.987Z,39.58
2018-03-27T10:36:47.573Z,41.2
2018-03-27T10:37:48.072Z,42.71
2018-03-27T10:38:47.947Z,43.87
2018-03-27T10:39:48.037Z,44.61
2018-03-27T10:40:48.334Z,44.61
2018-03-27T10:41:48.434Z,44.97
2018-03-27T10:42:48.110Z,45.23
2018-03-27T10:43:48.144Z,45.59
2018-03-27T10:44:47.891Z,45.76
2018-03-27T10:45:48.689Z,46.61
2018-03-27T10:46:48.618Z,47.94
2018-03-27T10:47:48.793Z,48.71
2018-03-27T10:48:48.848Z,48.71
2018-03-27T10:49:48.839Z,48.71
2018-03-27T10:50:49.145Z,49
2018-03-27T10:51:49.350Z,49.38
2018-03-27T10:52:49.190Z,49.09
2018-03-27T10:53:49.343Z,48.9
2018-03-27T10:54:49.446Z,48.9
2018-03-27T10:55:49.872Z,48.78
2018-03-27T10:56:49.119Z,49.45
2018-03-27T10:57:49.724Z,49.35
2018-03-27T10:58:49.733Z,49
2018-03-27T10:59:49.781Z,48.38
2018-03-27T11:00:50.190Z,46.98
2018-03-27T11:01:50.408Z,45.78
2018-03-27T11:02:50.696Z,44.73
2018-03-27T11:03:50.563Z,44.73
2018-03-27T11:04:50.527Z,45
2018-03-27T11:05:50.902Z,45.28
2018-03-27T11:06:50.941Z,45.37
2018-03-27T11:07:51.354Z,45.83
2018-03-27T11:08:51.223Z,46
2018-03-27T11:09:51.811Z,47.42
2018-03-27T11:10:52.748Z,48.25
2018-03-27T11:11:53.037Z,48.8
2018-03-27T11:12:53.340Z,49.26
2018-03-27T11:13:52.887Z,49.93
2018-03-27T11:14:52.534Z,49.43
2018-03-27T11:15:52.462Z,50.16
2018-03-27T11:16:52.756Z,51.21
2018-03-27T11:17:53.162Z,52.34
2018-03-27T11:18:52.994Z,53
2018-03-27T11:19:53.320Z,53.67
2018-03-27T11:20:53.075Z,54.22
2018-03-27T11:21:53.100Z,54.5
2018-03-27T11:22:53.135Z,54.6
2018-03-27T11:23:53.330Z,54.6
2018-03-27T11:24:53.993Z,56.04
2018-03-27T11:25:54.014Z,56.77
2018-03-27T11:26:54.366Z,57.43
2018-03-27T11:27:54.284Z,57.34
2018-03-27T11:28:54.611Z,56.96
2018-03-27T11:29:55.044Z,56.77
2018-03-27T11:30:55.160Z,56.65
2018-03-27T11:31:55.478Z,56.65
2018-03-27T11:32:55.735Z,56.93
2018-03-27T11:33:55.571Z,55.79
2018-03-27T11:34:55.824Z,56.36
2018-03-27T11:35:55.536Z,56.36
2018-03-27T11:36:55.675Z,56.71
2018-03-27T11:37:56.337Z,57.38
2018-03-27T11:38:56.325Z,57.38
2018-03-27T11:39:56.363Z,57.09
2018-03-27T11:40:56.845Z,57.57
2018-03-27T11:41:56.415Z,58.36
2018-03-27T11:42:56.427Z,57.89
2018-03-27T11:43:56.467Z,58.55
2018-03-27T11:44:56.684Z,58.46
2018-03-27T11:45:57.786Z,58.17
2018-03-27T11:46:57.429Z,57.22
2018-03-27T11:47:58.084Z,55.88
2018-03-27T11:48:57.939Z,56.07
2018-03-27T11:49:57.507Z,55.47
2018-03-27T11:50:58.180Z,55.47
2018-03-27T11:51:58.389Z,55.76
2018-03-27T11:52:58.138Z,55.66
2018-03-27T11:53:57.772Z,55.19
2018-03-27T11:54:58.352Z,55.57
2018-03-27T11:55:58.481Z,56.33
2018-03-27T11:56:58.418Z,56.81
2018-03-27T11:57:58.011Z,57
2018-03-27T11:58:57.856Z,57.64
2018-03-27T11:59:58.049Z,58.5
2018-03-27T12:00:57.955Z,58.78
2018-03-27T12:01:57.650Z,59.51
2018-03-27T12:02:58.327Z,59.99
2018-03-27T12:03:58.241Z,59.64
2018-03-27T12:04:58.677Z,59.26
2018-03-27T12:05:58.751Z,59.54
2018-03-27T12:06:58.453Z,59.45
2018-03-27T12:07:59.045Z,59.54
2018-03-27T12:08:58.849Z,58.62
2018-03-27T12:09:59.018Z,58.52
2018-03-27T12:10:59.333Z,57.76
2018-03-27T12:11:59.226Z,57.57
2018-03-27T12:12:59.252Z,57.26
2018-03-27T12:13:59.730Z,58.33
2018-03-27T12:14:59.746Z,57.86
2018-03-27T12:15:59.994Z,57.95
2018-03-27T12:17:00.017Z,57.28
2018-03-27T12:17:59.774Z,56.62
2018-03-27T12:19:00.029Z,57.28
2018-03-27T12:19:59.942Z,57.95
2018-03-27T12:21:00.146Z,57.45
2018-03-27T12:22:00.460Z,57.26
2018-03-27T12:23:00.342Z,58.3
2018-03-27T12:24:00.909Z,58.02
2018-03-27T12:25:00.650Z,57.92
2018-03-27T12:26:01.094Z,57.54
2018-03-27T12:27:01.107Z,57.82
2018-03-27T12:28:01.159Z,58.4
2018-03-27T12:29:01.178Z,58.02
2018-03-27T12:30:01.208Z,58.3
2018-03-27T12:31:00.951Z,59.32
2018-03-27T12:32:01.582Z,58.37
2018-03-27T12:33:01.711Z,57.64
2018-03-27T12:34:01.800Z,57.23
2018-03-27T12:35:01.721Z,57.92
2018-03-27T12:36:01.744Z,57.35
2018-03-27T12:37:01.804Z,57.54
2018-03-27T12:38:02.293Z,57.54
2018-03-27T12:39:02.130Z,57.54
2018-03-27T12:40:02.912Z,56.68
2018-03-27T12:41:03.106Z,56.71
2018-03-27T12:42:03.032Z,56.62
2018-03-27T12:43:03.378Z,56.52
2018-03-27T12:44:03.369Z,55.98
2018-03-27T12:45:03.609Z,56.04
2018-03-27T12:46:03.445Z,56.14
2018-03-27T12:47:03.164Z,56.04
2018-03-27T12:48:03.257Z,55.5
2018-03-27T12:49:03.856Z,55
2018-03-27T12:50:04.324Z,55.19
2018-03-27T12:51:04.370Z,55.28
2018-03-27T12:52:04.380Z,55.38
2018-03-27T12:53:04.581Z,55.57
2018-03-27T12:54:04.245Z,55.85
2018-03-27T12:55:04.487Z,56.14
2018-03-27T12:56:04.516Z,55.76
2018-03-27T12:57:04.193Z,55.85
2018-03-27T12:58:04.277Z,56.14
2018-03-27T12:59:04.270Z,55.92
2018-03-27T13:00:11.484Z,56.43
2018-03-27T13:01:11.351Z,55.76
2018-03-27T13:02:11.405Z,55.47
2018-03-27T13:03:11.391Z,55.85
2018-03-27T13:04:11.122Z,55.95
2018-03-27T13:05:12.485Z,56.24
2018-03-27T13:06:11.873Z,55.47
2018-03-27T13:07:11.962Z,56.52
2018-03-27T13:08:11.960Z,56.52
2018-03-27T13:09:12.121Z,56.71
2018-03-27T13:10:12.635Z,56.62
2018-03-27T13:11:12.221Z,56.52
2018-03-27T13:12:12.098Z,56.62
2018-03-27T13:13:12.487Z,56.52
2018-03-27T13:14:12.857Z,56.71
2018-03-27T13:15:12.805Z,57.19
2018-03-27T13:16:12.624Z,56.71
2018-03-27T13:17:13.019Z,56.78
2018-03-27T13:18:12.762Z,56.59
2018-03-27T13:19:13.073Z,56.46
2018-03-27T13:20:13.213Z,57.13
2018-03-27T13:21:13.237Z,57.6
2018-03-27T13:22:13.957Z,58.18
2018-03-27T13:23:13.674Z,58.56
2018-03-27T13:24:14.132Z,58.18
2018-03-27T13:25:14.179Z,57.8
2018-03-27T13:26:14.204Z,57.04
2018-03-27T13:27:14.225Z,57.51
2018-03-27T13:28:14.491Z,57.99
2018-03-27T13:29:15.116Z,58.65
2018-03-27T13:30:15.050Z,58.4
2018-03-27T13:31:14.800Z,58.3
2018-03-27T13:32:14.999Z,57.54
2018-03-27T13:33:14.986Z,56.21
2018-03-27T13:34:15.377Z,55.44
2018-03-27T13:35:15.456Z,55.07
2018-03-27T13:36:15.845Z,55.09
2018-03-27T13:37:15.594Z,55.85
2018-03-27T13:38:15.780Z,56.43
2018-03-27T13:39:15.841Z,56.52
2018-03-27T13:40:16.528Z,56.62
2018-03-27T13:41:16.542Z,56.14
2018-03-27T13:42:16.298Z,55.09
2018-03-27T13:43:16.970Z,55.41
2018-03-27T13:44:17.098Z,54.74
2018-03-27T13:45:17.406Z,53.85
2018-03-27T13:46:17.808Z,54.52
2018-03-27T13:47:17.832Z,55.09
2018-03-27T13:48:17.991Z,54.52
2018-03-27T13:49:17.900Z,54.04
2018-03-27T13:50:18.074Z,54.11
2018-03-27T13:51:18.759Z,54.39
2018-03-27T13:52:19.205Z,54.97
2018-03-27T13:53:19.621Z,55.04
2018-03-27T13:54:20.073Z,54.85
2018-03-27T13:55:20.145Z,55.99
2018-03-27T13:56:20.109Z,56.56
2018-03-27T13:57:20.158Z,56.94
2018-03-27T13:58:20.575Z,57.23
2018-03-27T13:59:20.740Z,56.94
2018-03-27T14:00:20.495Z,57.23
2018-03-27T14:01:21.201Z,57.42
2018-03-27T14:02:21.383Z,57.48
2018-03-27T14:03:21.405Z,58.34
2018-03-27T14:04:21.162Z,58.81
2018-03-27T14:05:21.456Z,58.25
2018-03-27T14:06:21.505Z,58.44
2018-03-27T14:07:21.667Z,57.2
2018-03-27T14:08:21.675Z,57.29
2018-03-27T14:09:21.994Z,57.67
2018-03-27T14:10:22.018Z,57.48
2018-03-27T14:11:22.130Z,58.03
2018-03-27T14:12:22.087Z,58.15
2018-03-27T14:13:22.231Z,57.77
2018-03-27T14:14:22.375Z,58.25
2018-03-27T14:15:22.706Z,58.15
2018-03-27T14:16:22.574Z,58.25
2018-03-27T14:17:24.366Z,57.58
2018-03-27T14:18:23.702Z,58.25
2018-03-27T14:19:23.894Z,57.39
2018-03-27T14:20:23.856Z,57.87
2018-03-27T14:21:23.924Z,58.81
2018-03-27T14:22:24.081Z,57.96
2018-03-27T14:23:24.526Z,57.87
2018-03-27T14:24:24.522Z,58.12
2018-03-27T14:25:24.579Z,59.36
2018-03-27T14:26:24.649Z,59.74
2018-03-27T14:27:24.604Z,59.93
2018-03-27T14:28:25.209Z,60.78
2018-03-27T14:29:24.836Z,60.41
2018-03-27T14:30:24.890Z,60.6
2018-03-27T14:31:24.910Z,60.97
2018-03-27T14:32:25.184Z,61.16
2018-03-27T14:33:25.086Z,61.55
2018-03-27T14:34:25.493Z,61.16
2018-03-27T14:35:25.920Z,61.07
2018-03-27T14:36:25.699Z,60.78
2018-03-27T14:37:25.745Z,61.07
2018-03-27T14:38:26.330Z,60.69
2018-03-27T14:39:26.083Z,60.5
2018-03-27T14:40:26.562Z,59.96
2018-03-27T14:41:26.490Z,59.55
2018-03-27T14:42:26.777Z,59.55
2018-03-27T14:43:26.992Z,59.36
2018-03-27T14:44:27.295Z,59.45
2018-03-27T14:45:27.288Z,60.31
2018-03-27T14:46:27.462Z,61.07
2018-03-27T14:47:28.014Z,61.16
2018-03-27T14:48:28.099Z,61.26
2018-03-27T14:49:28.071Z,61
2018-03-27T14:50:28.095Z,61.1
2018-03-27T14:51:28.130Z,60.91
2018-03-27T14:52:28.171Z,61.38
2018-03-27T14:53:28.277Z,61.19
2018-03-27T14:54:27.930Z,61.55
2018-03-27T14:55:28.527Z,62.02
2018-03-27T14:56:28.404Z,61.55
2018-03-27T14:57:28.719Z,62.12
2018-03-27T14:58:29.135Z,61.64
2018-03-27T14:59:28.877Z,61.55
2018-03-27T15:00:29.250Z,61.64
2018-03-27T15:01:29.913Z,61.45
2018-03-27T15:02:31.067Z,61.58
2018-03-27T15:03:30.308Z,61.96
2018-03-27T15:04:29.971Z,61.93
2018-03-27T15:05:29.740Z,61.74
2018-03-27T15:06:30.023Z,61.93
2018-03-27T15:07:30.251Z,62.21
2018-03-27T15:08:29.940Z,62.4
2018-03-27T15:09:30.247Z,62.88
2018-03-27T15:10:30.308Z,63.04
2018-03-27T15:11:30.674Z,63.7
2018-03-27T15:12:30.819Z,63.99
2018-03-27T15:13:31.010Z,64.08
2018-03-27T15:14:31.562Z,63.51
2018-03-27T15:15:31.593Z,63.13
2018-03-27T15:16:31.604Z,63.04
2018-03-27T15:17:31.632Z,63.04
2018-03-27T15:18:31.864Z,63.23
2018-03-27T15:19:32.043Z,63.7
2018-03-27T15:20:32.376Z,63.6
2018-03-27T15:21:32.137Z,63.42
2018-03-27T15:22:32.348Z,63.32
2018-03-27T15:23:32.388Z,63.32
2018-03-27T15:24:32.123Z,63.42
2018-03-27T15:25:32.487Z,63.51
2018-03-27T15:26:32.192Z,63.32
2018-03-27T15:27:32.485Z,63.13
2018-03-27T15:28:32.510Z,63.13
2018-03-27T15:29:32.268Z,62.56
2018-03-27T15:30:32.580Z,63.23
2018-03-27T15:31:32.845Z,62.94
2018-03-27T15:32:32.751Z,63.04
2018-03-27T15:33:32.931Z,63.01
2018-03-27T15:34:32.827Z,63.32
2018-03-27T15:35:32.848Z,63.29
2018-03-27T15:36:32.865Z,63.67
2018-03-27T15:37:33.002Z,63.95
2018-03-27T15:38:33.179Z,64.34
2018-03-27T15:39:33.261Z,64.34
2018-03-27T15:40:33.255Z,65.19
2018-03-27T15:41:33.480Z,65.47
2018-03-27T15:42:33.294Z,66.05
2018-03-27T15:43:33.676Z,66.61
2018-03-27T15:44:33.406Z,66.61
2018-03-27T15:45:33.789Z,67
2018-03-27T15:46:34.145Z,66.71
2018-03-27T15:47:34.772Z,66.8
2018-03-27T15:48:34.223Z,67.06
2018-03-27T15:49:34.485Z,67.25
2018-03-27T15:50:34.521Z,66.77
2018-03-27T15:51:35.153Z,67.15
2018-03-27T15:52:35.309Z,67.15
2018-03-27T15:53:35.396Z,67.34
2018-03-27T15:54:35.057Z,67.44
2018-03-27T15:55:35.388Z,67.06
2018-03-27T15:56:35.122Z,67.34
2018-03-27T15:57:35.155Z,67.53
2018-03-27T15:58:35.857Z,67.25
2018-03-27T15:59:36.197Z,67.53
2018-03-27T16:00:36.215Z,67.44
2018-03-27T16:01:36.649Z,67.44
2018-03-27T16:02:36.678Z,67.34
2018-03-27T16:03:36.708Z,67.25
2018-03-27T16:04:36.972Z,67.15
2018-03-27T16:05:36.976Z,67.34
2018-03-27T16:06:36.988Z,67.53
2018-03-27T16:07:37.656Z,68.29
2018-03-27T16:08:37.685Z,68.1
2018-03-27T16:09:38.114Z,68.1
2018-03-27T16:10:37.875Z,68.39
2018-03-27T16:11:38.424Z,68.1
2018-03-27T16:12:38.344Z,68.1
2018-03-27T16:13:38.370Z,68.86
2018-03-27T16:14:38.374Z,68.73
2018-03-27T16:15:38.172Z,68.86
2018-03-27T16:16:38.454Z,69.02
2018-03-27T16:17:38.195Z,69.4
2018-03-27T16:18:38.675Z,69.49
2018-03-27T16:19:39.098Z,69.11
2018-03-27T16:20:39.614Z,69.21
2018-03-27T16:21:39.262Z,69.11
2018-03-27T16:22:39.571Z,69.11
2018-03-27T16:23:39.575Z,69.11
2018-03-27T16:24:39.345Z,69.59
2018-03-27T16:25:40.174Z,69.59
2018-03-27T16:26:40.054Z,69.87
2018-03-27T16:27:40.020Z,69.59
2018-03-27T16:28:40.594Z,70.15
2018-03-27T16:29:40.546Z,69.96
2018-03-27T16:30:40.298Z,69.96
2018-03-27T16:31:40.992Z,70.44
2018-03-27T16:32:41.404Z,70.54
2018-03-27T16:33:41.330Z,70.63
2018-03-27T16:34:41.747Z,71.11
2018-03-27T16:35:42.157Z,71.2
2018-03-27T16:36:42.194Z,71.48
2018-03-27T16:37:42.314Z,71.48
2018-03-27T16:38:42.696Z,71.48
2018-03-27T16:39:43.201Z,72.06
2018-03-27T16:40:42.880Z,71.92
2018-03-27T16:41:43.219Z,71.83
2018-03-27T16:42:43.714Z,72.4
2018-03-27T16:43:43.676Z,72.49
2018-03-27T16:44:43.714Z,72.68
2018-03-27T16:45:43.710Z,72.49
2018-03-27T16:46:44.340Z,72.15
2018-03-27T16:47:44.534Z,71.86
2018-03-27T16:48:44.736Z,71.96
2018-03-27T16:49:44.793Z,71.96
2018-03-27T16:50:44.926Z,71.86
2018-03-27T16:51:45.863Z,72.68
2018-03-27T16:52:45.651Z,72.68
2018-03-27T16:53:45.675Z,72.49
2018-03-27T16:54:46.048Z,72.02
2018-03-27T16:55:46.066Z,72.11
2018-03-27T16:56:45.811Z,72.34
2018-03-27T16:57:45.854Z,72.3
2018-03-27T16:58:46.190Z,72.25
2018-03-27T16:59:46.590Z,71.96
2018-03-27T17:00:46.618Z,72.06
2018-03-27T17:01:47.255Z,71.96
2018-03-27T17:02:47.141Z,72.06
2018-03-27T17:03:47.576Z,71.96
2018-03-27T17:04:47.472Z,71.67
2018-03-27T17:05:47.791Z,71.36
2018-03-27T17:06:47.645Z,71.2
2018-03-27T17:07:47.581Z,71.07
2018-03-27T17:08:47.576Z,71.36
2018-03-27T17:09:48.070Z,71.17
2018-03-27T17:10:48.022Z,71.17
2018-03-27T17:11:48.201Z,71.45
2018-03-27T17:12:48.178Z,71.83
2018-03-27T17:13:48.802Z,71.92
2018-03-27T17:14:49.314Z,71.64
2018-03-27T17:15:48.432Z,71.73
2018-03-27T17:16:48.272Z,72.11
2018-03-27T17:17:48.729Z,71.92
2018-03-27T17:18:48.891Z,71.73
2018-03-27T17:19:49.199Z,71.92
2018-03-27T17:20:49.139Z,71.92
2018-03-27T17:21:49.221Z,71.73
2018-03-27T17:22:49.321Z,71.73
2018-03-27T17:23:49.040Z,71.73
2018-03-27T17:24:49.367Z,71.73
2018-03-27T17:25:49.493Z,71.64
2018-03-27T17:26:49.499Z,72.02
2018-03-27T17:27:50.144Z,72.4
2018-03-27T17:28:50.490Z,72.11
2018-03-27T17:29:50.246Z,72.78
2018-03-27T17:30:50.278Z,72.68
2018-03-27T17:31:50.229Z,72.68
2018-03-27T17:32:50.270Z,72.68
2018-03-27T17:33:50.137Z,73.16
2018-03-27T17:34:50.194Z,72.97
2018-03-27T17:35:50.926Z,73.31
2018-03-27T17:36:50.975Z,73.5
2018-03-27T17:37:50.904Z,73.69
2018-03-27T17:38:51.338Z,73.79
2018-03-27T17:39:51.055Z,74.07
2018-03-27T17:40:51.370Z,74.54
2018-03-27T17:41:51.414Z,74.26
2018-03-27T17:42:52.084Z,75.02
2018-03-27T17:43:51.625Z,74.83
2018-03-27T17:44:51.948Z,74.73
2018-03-27T17:45:51.961Z,74.83
2018-03-27T17:46:52.438Z,75.02
2018-03-27T17:47:52.417Z,75.11
2018-03-27T17:48:52.560Z,75.31
2018-03-27T17:49:52.574Z,75.31
2018-03-27T17:50:52.453Z,75.78
2018-03-27T17:51:53.135Z,75.96
2018-03-27T17:52:53.857Z,76.34
2018-03-27T17:53:53.802Z,76.54
2018-03-27T17:54:53.394Z,76.54
2018-03-27T17:55:53.815Z,76.82
2018-03-27T17:56:54.053Z,77.2
2018-03-27T17:57:54.472Z,77.01
2018-03-27T17:58:54.565Z,76.82
2018-03-27T17:59:54.876Z,77.58
2018-03-27T18:00:54.769Z,77.39
2018-03-27T18:01:55.672Z,77.2
2018-03-27T18:02:55.793Z,77.77
2018-03-27T18:03:58.621Z,77.86
